sensor_id;sensor_type;location;lat;lon;timestamp;pressure;altitude;pressure_sealevel;temperature;humidity
60642;BME280;46837;52.446;-1.930;2023-05-25T00:00:11;101432.18;;;13.48;72.27
60642;BME280;46837;52.446;-1.930;2023-05-25T00:01:09;101435.45;;;13.50;72.24
60642;BME280;46837;52.446;-1.930;2023-05-25T00:02:09;101434.25;;;13.52;72.15
60642;BME280;46837;52.446;-1.930;2023-05-25T00:03:09;101437.71;;;13.52;72.09
60642;BME280;46837;52.446;-1.930;2023-05-25T00:04:09;101431.30;;;13.53;72.09
60642;BME280;46837;52.446;-1.930;2023-05-25T00:05:09;101431.04;;;13.49;72.22
60642;BME280;46837;52.446;-1.930;2023-05-25T00:06:09;101430.15;;;13.48;72.25
60642;BME280;46837;52.446;-1.930;2023-05-25T00:07:09;101429.39;;;13.49;72.25
60642;BME280;46837;52.446;-1.930;2023-05-25T00:08:09;101430.27;;;13.48;72.23
60642;BME280;46837;52.446;-1.930;2023-05-25T00:09:09;101429.86;;;13.46;72.30
60642;BME280;46837;52.446;-1.930;2023-05-25T00:10:09;101430.54;;;13.47;72.30
60642;BME280;46837;52.446;-1.930;2023-05-25T00:11:09;101428.71;;;13.46;72.36
60642;BME280;46837;52.446;-1.930;2023-05-25T00:12:09;101430.82;;;13.44;72.29
60642;BME280;46837;52.446;-1.930;2023-05-25T00:13:09;101431.86;;;13.44;72.40
60642;BME280;46837;52.446;-1.930;2023-05-25T00:14:10;101432.54;;;13.45;72.43
60642;BME280;46837;52.446;-1.930;2023-05-25T00:15:09;101427.84;;;13.46;72.26
60642;BME280;46837;52.446;-1.930;2023-05-25T00:16:09;101436.34;;;13.46;72.44
60642;BME280;46837;52.446;-1.930;2023-05-25T00:17:09;101431.50;;;13.45;72.48
60642;BME280;46837;52.446;-1.930;2023-05-25T00:18:09;101431.36;;;13.48;72.37
60642;BME280;46837;52.446;-1.930;2023-05-25T00:19:09;101428.27;;;13.46;72.49
60642;BME280;46837;52.446;-1.930;2023-05-25T00:20:09;101428.64;;;13.46;72.46
60642;BME280;46837;52.446;-1.930;2023-05-25T00:21:09;101431.09;;;13.43;72.64
60642;BME280;46837;52.446;-1.930;2023-05-25T00:22:09;101430.61;;;13.40;72.81
60642;BME280;46837;52.446;-1.930;2023-05-25T00:23:09;101433.92;;;13.40;72.65
60642;BME280;46837;52.446;-1.930;2023-05-25T00:24:09;101435.77;;;13.44;72.55
60642;BME280;46837;52.446;-1.930;2023-05-25T00:25:09;101436.61;;;13.46;72.46
60642;BME280;46837;52.446;-1.930;2023-05-25T00:26:09;101437.48;;;13.45;72.47
60642;BME280;46837;52.446;-1.930;2023-05-25T00:27:09;101434.94;;;13.45;72.60
60642;BME280;46837;52.446;-1.930;2023-05-25T00:28:09;101436.60;;;13.45;72.56
60642;BME280;46837;52.446;-1.930;2023-05-25T00:29:09;101433.86;;;13.46;72.51
60642;BME280;46837;52.446;-1.930;2023-05-25T00:30:09;101436.64;;;13.48;72.42
60642;BME280;46837;52.446;-1.930;2023-05-25T00:31:09;101434.60;;;13.48;72.29
60642;BME280;46837;52.446;-1.930;2023-05-25T00:32:09;101436.20;;;13.47;72.40
60642;BME280;46837;52.446;-1.930;2023-05-25T00:33:09;101439.48;;;13.47;72.47
60642;BME280;46837;52.446;-1.930;2023-05-25T00:34:09;101438.04;;;13.46;72.51
60642;BME280;46837;52.446;-1.930;2023-05-25T00:35:09;101438.63;;;13.45;72.48
60642;BME280;46837;52.446;-1.930;2023-05-25T00:36:10;101439.21;;;13.43;72.56
60642;BME280;46837;52.446;-1.930;2023-05-25T00:37:09;101440.56;;;13.40;72.69
60642;BME280;46837;52.446;-1.930;2023-05-25T00:38:13;101442.32;;;13.40;72.67
60642;BME280;46837;52.446;-1.930;2023-05-25T00:39:09;101443.75;;;13.41;72.67
60642;BME280;46837;52.446;-1.930;2023-05-25T00:40:10;101444.93;;;13.39;72.67
60642;BME280;46837;52.446;-1.930;2023-05-25T00:41:09;101446.31;;;13.35;72.94
60642;BME280;46837;52.446;-1.930;2023-05-25T00:42:09;101448.17;;;13.35;72.94
60642;BME280;46837;52.446;-1.930;2023-05-25T00:43:09;101445.62;;;13.32;73.02
60642;BME280;46837;52.446;-1.930;2023-05-25T00:44:11;101449.29;;;13.31;73.10
60642;BME280;46837;52.446;-1.930;2023-05-25T00:45:09;101447.25;;;13.31;73.20
60642;BME280;46837;52.446;-1.930;2023-05-25T00:46:09;101447.40;;;13.29;73.26
60642;BME280;46837;52.446;-1.930;2023-05-25T00:47:09;101449.23;;;13.27;73.30
60642;BME280;46837;52.446;-1.930;2023-05-25T00:48:09;101448.82;;;13.25;73.52
60642;BME280;46837;52.446;-1.930;2023-05-25T00:49:09;101448.60;;;13.24;73.49
60642;BME280;46837;52.446;-1.930;2023-05-25T00:50:09;101449.34;;;13.26;73.44
60642;BME280;46837;52.446;-1.930;2023-05-25T00:51:09;101449.47;;;13.23;73.48
60642;BME280;46837;52.446;-1.930;2023-05-25T00:52:10;101453.56;;;13.21;73.64
60642;BME280;46837;52.446;-1.930;2023-05-25T00:53:09;101456.76;;;13.21;73.59
60642;BME280;46837;52.446;-1.930;2023-05-25T00:54:09;101456.18;;;13.22;73.58
60642;BME280;46837;52.446;-1.930;2023-05-25T00:55:09;101455.56;;;13.24;73.49
60642;BME280;46837;52.446;-1.930;2023-05-25T00:56:13;101456.83;;;13.24;73.46
60642;BME280;46837;52.446;-1.930;2023-05-25T00:57:09;101458.25;;;13.22;73.43
60642;BME280;46837;52.446;-1.930;2023-05-25T00:58:09;101460.54;;;13.17;73.79
60642;BME280;46837;52.446;-1.930;2023-05-25T00:59:09;101461.48;;;13.17;73.89
60642;BME280;46837;52.446;-1.930;2023-05-25T01:00:13;101459.66;;;13.17;73.86
60642;BME280;46837;52.446;-1.930;2023-05-25T01:01:09;101460.80;;;13.16;73.89
60642;BME280;46837;52.446;-1.930;2023-05-25T01:02:09;101458.45;;;13.17;73.88
60642;BME280;46837;52.446;-1.930;2023-05-25T01:03:11;101460.96;;;13.19;73.81
60642;BME280;46837;52.446;-1.930;2023-05-25T01:04:09;101456.28;;;13.14;73.99
60642;BME280;46837;52.446;-1.930;2023-05-25T01:05:09;101462.28;;;13.11;74.22
60642;BME280;46837;52.446;-1.930;2023-05-25T01:06:11;101466.62;;;13.15;74.03
60642;BME280;46837;52.446;-1.930;2023-05-25T01:07:09;101466.98;;;13.14;74.05
60642;BME280;46837;52.446;-1.930;2023-05-25T01:08:09;101465.46;;;13.11;74.20
60642;BME280;46837;52.446;-1.930;2023-05-25T01:09:09;101463.61;;;13.12;74.20
60642;BME280;46837;52.446;-1.930;2023-05-25T01:10:09;101462.75;;;13.14;74.14
60642;BME280;46837;52.446;-1.930;2023-05-25T01:11:10;101460.91;;;13.11;74.10
60642;BME280;46837;52.446;-1.930;2023-05-25T01:12:09;101461.30;;;13.07;74.32
60642;BME280;46837;52.446;-1.930;2023-05-25T01:13:09;101461.86;;;13.08;74.38
60642;BME280;46837;52.446;-1.930;2023-05-25T01:14:09;101457.50;;;13.07;74.33
60642;BME280;46837;52.446;-1.930;2023-05-25T01:15:09;101456.73;;;13.07;74.33
60642;BME280;46837;52.446;-1.930;2023-05-25T01:16:09;101453.91;;;13.05;74.43
60642;BME280;46837;52.446;-1.930;2023-05-25T01:17:10;101456.93;;;13.01;74.71
60642;BME280;46837;52.446;-1.930;2023-05-25T01:18:09;101458.00;;;12.99;74.83
60642;BME280;46837;52.446;-1.930;2023-05-25T01:19:09;101456.46;;;12.99;74.80
60642;BME280;46837;52.446;-1.930;2023-05-25T01:20:11;101459.91;;;12.98;74.90
60642;BME280;46837;52.446;-1.930;2023-05-25T01:21:22;101455.01;;;12.97;74.92
60642;BME280;46837;52.446;-1.930;2023-05-25T01:23:11;101459.63;;;13.01;74.72
60642;BME280;46837;52.446;-1.930;2023-05-25T01:25:17;101459.31;;;13.03;74.71
60642;BME280;46837;52.446;-1.930;2023-05-25T01:26:10;101462.94;;;13.02;74.82
60642;BME280;46837;52.446;-1.930;2023-05-25T01:29:09;101464.46;;;13.06;74.65
60642;BME280;46837;52.446;-1.930;2023-05-25T01:30:12;101460.87;;;13.08;74.55
60642;BME280;46837;52.446;-1.930;2023-05-25T01:31:09;101458.43;;;13.07;74.65
60642;BME280;46837;52.446;-1.930;2023-05-25T01:32:09;101462.54;;;13.10;74.48
60642;BME280;46837;52.446;-1.930;2023-05-25T01:33:09;101459.93;;;13.11;74.37
60642;BME280;46837;52.446;-1.930;2023-05-25T01:34:09;101460.95;;;13.07;74.60
60642;BME280;46837;52.446;-1.930;2023-05-25T01:35:09;101461.68;;;13.04;74.83
60642;BME280;46837;52.446;-1.930;2023-05-25T01:36:09;101460.71;;;13.04;74.82
60642;BME280;46837;52.446;-1.930;2023-05-25T01:37:09;101460.78;;;13.05;74.73
60642;BME280;46837;52.446;-1.930;2023-05-25T01:38:09;101459.00;;;13.04;74.79
60642;BME280;46837;52.446;-1.930;2023-05-25T01:39:09;101459.58;;;13.03;74.87
60642;BME280;46837;52.446;-1.930;2023-05-25T01:40:09;101461.55;;;13.03;74.89
60642;BME280;46837;52.446;-1.930;2023-05-25T01:41:09;101460.68;;;13.03;74.88
60642;BME280;46837;52.446;-1.930;2023-05-25T01:42:09;101461.27;;;13.05;74.84
60642;BME280;46837;52.446;-1.930;2023-05-25T01:43:09;101461.93;;;13.06;74.74
60642;BME280;46837;52.446;-1.930;2023-05-25T01:44:09;101461.54;;;13.09;74.58
60642;BME280;46837;52.446;-1.930;2023-05-25T01:45:09;101466.88;;;13.07;74.70
60642;BME280;46837;52.446;-1.930;2023-05-25T01:47:19;101465.61;;;13.05;74.86
60642;BME280;46837;52.446;-1.930;2023-05-25T01:50:17;101468.92;;;13.07;74.77
60642;BME280;46837;52.446;-1.930;2023-05-25T01:51:15;101470.39;;;13.06;74.78
60642;BME280;46837;52.446;-1.930;2023-05-25T01:53:15;101473.35;;;13.06;74.74
60642;BME280;46837;52.446;-1.930;2023-05-25T01:54:18;101468.28;;;13.04;74.91
60642;BME280;46837;52.446;-1.930;2023-05-25T01:55:11;101469.02;;;13.06;74.89
60642;BME280;46837;52.446;-1.930;2023-05-25T01:56:10;101469.60;;;13.04;74.89
60642;BME280;46837;52.446;-1.930;2023-05-25T01:57:12;101473.45;;;13.05;74.92
60642;BME280;46837;52.446;-1.930;2023-05-25T01:58:09;101474.12;;;13.06;74.84
60642;BME280;46837;52.446;-1.930;2023-05-25T01:59:09;101475.41;;;13.04;74.96
60642;BME280;46837;52.446;-1.930;2023-05-25T02:00:09;101478.93;;;13.05;74.90
60642;BME280;46837;52.446;-1.930;2023-05-25T02:01:09;101479.11;;;13.05;74.90
60642;BME280;46837;52.446;-1.930;2023-05-25T02:02:09;101475.20;;;13.04;75.00
60642;BME280;46837;52.446;-1.930;2023-05-25T02:03:09;101476.04;;;13.06;74.96
60642;BME280;46837;52.446;-1.930;2023-05-25T02:04:09;101475.96;;;13.09;74.74
60642;BME280;46837;52.446;-1.930;2023-05-25T02:05:09;101473.73;;;13.09;74.73
60642;BME280;46837;52.446;-1.930;2023-05-25T02:06:09;101476.33;;;13.07;74.88
60642;BME280;46837;52.446;-1.930;2023-05-25T02:07:09;101474.65;;;13.08;74.83
60642;BME280;46837;52.446;-1.930;2023-05-25T02:08:09;101477.78;;;13.09;74.80
60642;BME280;46837;52.446;-1.930;2023-05-25T02:09:09;101479.59;;;13.09;74.72
60642;BME280;46837;52.446;-1.930;2023-05-25T02:10:09;101477.63;;;13.09;74.68
60642;BME280;46837;52.446;-1.930;2023-05-25T02:11:09;101475.39;;;13.10;74.63
60642;BME280;46837;52.446;-1.930;2023-05-25T02:12:09;101475.05;;;13.06;74.86
60642;BME280;46837;52.446;-1.930;2023-05-25T02:13:09;101477.80;;;13.06;74.88
60642;BME280;46837;52.446;-1.930;2023-05-25T02:14:09;101473.18;;;13.09;74.72
60642;BME280;46837;52.446;-1.930;2023-05-25T02:15:09;101474.44;;;13.05;74.89
60642;BME280;46837;52.446;-1.930;2023-05-25T02:16:09;101475.71;;;13.05;74.97
60642;BME280;46837;52.446;-1.930;2023-05-25T02:17:09;101475.00;;;13.03;75.03
60642;BME280;46837;52.446;-1.930;2023-05-25T02:18:09;101475.42;;;13.00;75.19
60642;BME280;46837;52.446;-1.930;2023-05-25T02:19:09;101473.24;;;13.03;75.08
60642;BME280;46837;52.446;-1.930;2023-05-25T02:20:09;101477.90;;;13.02;75.13
60642;BME280;46837;52.446;-1.930;2023-05-25T02:21:09;101476.44;;;12.99;75.20
60642;BME280;46837;52.446;-1.930;2023-05-25T02:22:09;101480.42;;;13.01;75.20
60642;BME280;46837;52.446;-1.930;2023-05-25T02:23:09;101479.01;;;13.01;75.14
60642;BME280;46837;52.446;-1.930;2023-05-25T02:24:09;101477.08;;;13.01;75.15
60642;BME280;46837;52.446;-1.930;2023-05-25T02:25:09;101477.25;;;12.98;75.34
60642;BME280;46837;52.446;-1.930;2023-05-25T02:26:09;101474.46;;;12.99;75.30
60642;BME280;46837;52.446;-1.930;2023-05-25T02:27:09;101476.83;;;13.00;75.19
60642;BME280;46837;52.446;-1.930;2023-05-25T02:28:09;101476.16;;;12.98;75.30
60642;BME280;46837;52.446;-1.930;2023-05-25T02:29:09;101477.25;;;12.99;75.37
60642;BME280;46837;52.446;-1.930;2023-05-25T02:30:09;101479.55;;;12.98;75.29
60642;BME280;46837;52.446;-1.930;2023-05-25T02:31:09;101483.24;;;12.99;75.22
60642;BME280;46837;52.446;-1.930;2023-05-25T02:32:09;101483.29;;;12.98;75.27
60642;BME280;46837;52.446;-1.930;2023-05-25T02:33:09;101483.39;;;12.94;75.52
60642;BME280;46837;52.446;-1.930;2023-05-25T02:34:09;101481.84;;;12.93;75.56
60642;BME280;46837;52.446;-1.930;2023-05-25T02:35:09;101484.20;;;12.93;75.53
60642;BME280;46837;52.446;-1.930;2023-05-25T02:36:09;101483.13;;;12.94;75.49
60642;BME280;46837;52.446;-1.930;2023-05-25T02:37:09;101478.58;;;12.96;75.42
60642;BME280;46837;52.446;-1.930;2023-05-25T02:38:09;101481.05;;;12.96;75.44
60642;BME280;46837;52.446;-1.930;2023-05-25T02:39:09;101481.88;;;12.96;75.43
60642;BME280;46837;52.446;-1.930;2023-05-25T02:40:09;101480.38;;;12.94;75.55
60642;BME280;46837;52.446;-1.930;2023-05-25T02:41:09;101480.45;;;12.95;75.52
60642;BME280;46837;52.446;-1.930;2023-05-25T02:42:09;101475.79;;;12.92;75.60
60642;BME280;46837;52.446;-1.930;2023-05-25T02:43:09;101476.45;;;12.91;75.67
60642;BME280;46837;52.446;-1.930;2023-05-25T02:44:09;101476.66;;;12.91;75.65
60642;BME280;46837;52.446;-1.930;2023-05-25T02:45:09;101474.64;;;12.91;75.60
60642;BME280;46837;52.446;-1.930;2023-05-25T02:46:09;101477.19;;;12.86;75.85
60642;BME280;46837;52.446;-1.930;2023-05-25T02:47:09;101478.69;;;12.84;76.06
60642;BME280;46837;52.446;-1.930;2023-05-25T02:48:09;101478.88;;;12.81;76.17
60642;BME280;46837;52.446;-1.930;2023-05-25T02:49:09;101477.11;;;12.82;76.11
60642;BME280;46837;52.446;-1.930;2023-05-25T02:50:09;101477.33;;;12.81;76.18
60642;BME280;46837;52.446;-1.930;2023-05-25T02:51:09;101477.74;;;12.83;76.11
60642;BME280;46837;52.446;-1.930;2023-05-25T02:52:09;101475.60;;;12.83;76.14
60642;BME280;46837;52.446;-1.930;2023-05-25T02:53:09;101476.80;;;12.82;76.19
60642;BME280;46837;52.446;-1.930;2023-05-25T02:54:09;101480.19;;;12.84;76.11
60642;BME280;46837;52.446;-1.930;2023-05-25T02:55:09;101480.12;;;12.87;75.97
60642;BME280;46837;52.446;-1.930;2023-05-25T02:56:09;101481.75;;;12.87;76.08
60642;BME280;46837;52.446;-1.930;2023-05-25T02:57:09;101486.16;;;12.89;75.97
60642;BME280;46837;52.446;-1.930;2023-05-25T02:58:09;101484.96;;;12.89;75.94
60642;BME280;46837;52.446;-1.930;2023-05-25T02:59:09;101485.47;;;12.90;75.99
60642;BME280;46837;52.446;-1.930;2023-05-25T03:00:09;101484.02;;;12.92;75.90
60642;BME280;46837;52.446;-1.930;2023-05-25T03:01:12;101482.03;;;12.95;75.77
60642;BME280;46837;52.446;-1.930;2023-05-25T03:02:09;101482.85;;;12.95;75.88
60642;BME280;46837;52.446;-1.930;2023-05-25T03:03:09;101483.41;;;12.96;75.86
60642;BME280;46837;52.446;-1.930;2023-05-25T03:04:09;101483.75;;;12.96;75.91
60642;BME280;46837;52.446;-1.930;2023-05-25T03:05:09;101483.52;;;12.99;75.72
60642;BME280;46837;52.446;-1.930;2023-05-25T03:06:09;101481.85;;;13.01;75.74
60642;BME280;46837;52.446;-1.930;2023-05-25T03:07:09;101481.64;;;13.03;75.75
60642;BME280;46837;52.446;-1.930;2023-05-25T03:08:09;101483.46;;;13.03;75.72
60642;BME280;46837;52.446;-1.930;2023-05-25T03:09:09;101480.40;;;13.04;75.68
60642;BME280;46837;52.446;-1.930;2023-05-25T03:10:09;101481.96;;;13.05;75.59
60642;BME280;46837;52.446;-1.930;2023-05-25T03:11:09;101483.00;;;13.05;75.64
60642;BME280;46837;52.446;-1.930;2023-05-25T03:12:09;101483.51;;;13.07;75.52
60642;BME280;46837;52.446;-1.930;2023-05-25T03:13:09;101485.18;;;13.09;75.33
60642;BME280;46837;52.446;-1.930;2023-05-25T03:14:09;101489.07;;;13.08;75.50
60642;BME280;46837;52.446;-1.930;2023-05-25T03:15:09;101487.77;;;13.05;75.66
60642;BME280;46837;52.446;-1.930;2023-05-25T03:16:09;101488.38;;;13.05;75.69
60642;BME280;46837;52.446;-1.930;2023-05-25T03:17:09;101491.91;;;13.02;75.87
60642;BME280;46837;52.446;-1.930;2023-05-25T03:18:09;101491.56;;;13.01;75.91
60642;BME280;46837;52.446;-1.930;2023-05-25T03:19:09;101489.61;;;12.99;75.97
60642;BME280;46837;52.446;-1.930;2023-05-25T03:20:09;101489.59;;;13.01;75.91
60642;BME280;46837;52.446;-1.930;2023-05-25T03:21:09;101488.55;;;13.01;75.87
60642;BME280;46837;52.446;-1.930;2023-05-25T03:22:09;101493.11;;;13.02;75.88
60642;BME280;46837;52.446;-1.930;2023-05-25T03:23:09;101493.31;;;13.01;75.91
60642;BME280;46837;52.446;-1.930;2023-05-25T03:24:09;101495.07;;;13.01;75.97
60642;BME280;46837;52.446;-1.930;2023-05-25T03:25:09;101490.36;;;13.03;75.88
60642;BME280;46837;52.446;-1.930;2023-05-25T03:26:09;101492.42;;;13.04;75.82
60642;BME280;46837;52.446;-1.930;2023-05-25T03:27:09;101490.69;;;13.03;75.91
60642;BME280;46837;52.446;-1.930;2023-05-25T03:28:09;101490.56;;;13.04;75.85
60642;BME280;46837;52.446;-1.930;2023-05-25T03:29:09;101494.51;;;13.04;75.88
60642;BME280;46837;52.446;-1.930;2023-05-25T03:30:09;101493.45;;;13.04;75.88
60642;BME280;46837;52.446;-1.930;2023-05-25T03:31:09;101493.75;;;13.05;75.83
60642;BME280;46837;52.446;-1.930;2023-05-25T03:32:09;101494.97;;;13.05;75.82
60642;BME280;46837;52.446;-1.930;2023-05-25T03:33:09;101492.94;;;13.05;75.82
60642;BME280;46837;52.446;-1.930;2023-05-25T03:34:09;101492.85;;;13.03;75.97
60642;BME280;46837;52.446;-1.930;2023-05-25T03:35:09;101495.05;;;13.04;76.00
60642;BME280;46837;52.446;-1.930;2023-05-25T03:36:09;101495.19;;;13.02;76.08
60642;BME280;46837;52.446;-1.930;2023-05-25T03:37:09;101500.62;;;13.01;76.18
60642;BME280;46837;52.446;-1.930;2023-05-25T03:38:09;101495.86;;;13.03;76.12
60642;BME280;46837;52.446;-1.930;2023-05-25T03:39:09;101498.05;;;13.03;76.15
60642;BME280;46837;52.446;-1.930;2023-05-25T03:40:09;101497.77;;;13.05;76.06
60642;BME280;46837;52.446;-1.930;2023-05-25T03:41:09;101496.96;;;13.07;76.05
60642;BME280;46837;52.446;-1.930;2023-05-25T03:42:09;101493.34;;;13.07;76.07
60642;BME280;46837;52.446;-1.930;2023-05-25T03:43:09;101492.59;;;13.09;76.03
60642;BME280;46837;52.446;-1.930;2023-05-25T03:44:09;101494.10;;;13.06;76.20
60642;BME280;46837;52.446;-1.930;2023-05-25T03:45:09;101492.76;;;13.08;76.20
60642;BME280;46837;52.446;-1.930;2023-05-25T03:46:09;101491.14;;;13.14;75.98
60642;BME280;46837;52.446;-1.930;2023-05-25T03:47:09;101490.27;;;13.19;75.79
60642;BME280;46837;52.446;-1.930;2023-05-25T03:48:09;101494.48;;;13.22;75.66
60642;BME280;46837;52.446;-1.930;2023-05-25T03:49:09;101491.28;;;13.27;75.52
60642;BME280;46837;52.446;-1.930;2023-05-25T03:50:09;101494.70;;;13.28;75.66
60642;BME280;46837;52.446;-1.930;2023-05-25T03:51:09;101490.99;;;13.30;75.45
60642;BME280;46837;52.446;-1.930;2023-05-25T03:52:09;101491.43;;;13.33;75.39
60642;BME280;46837;52.446;-1.930;2023-05-25T03:53:09;101489.54;;;13.36;75.28
60642;BME280;46837;52.446;-1.930;2023-05-25T03:54:09;101492.15;;;13.39;75.20
60642;BME280;46837;52.446;-1.930;2023-05-25T03:55:09;101486.86;;;13.42;75.09
60642;BME280;46837;52.446;-1.930;2023-05-25T03:56:09;101485.30;;;13.44;75.03
60642;BME280;46837;52.446;-1.930;2023-05-25T03:57:09;101487.87;;;13.44;75.04
60642;BME280;46837;52.446;-1.930;2023-05-25T03:58:09;101485.32;;;13.46;75.00
60642;BME280;46837;52.446;-1.930;2023-05-25T03:59:09;101486.66;;;13.47;74.98
60642;BME280;46837;52.446;-1.930;2023-05-25T04:00:09;101489.24;;;13.48;74.86
60642;BME280;46837;52.446;-1.930;2023-05-25T04:01:09;101489.51;;;13.47;74.92
60642;BME280;46837;52.446;-1.930;2023-05-25T04:02:09;101486.21;;;13.51;74.80
60642;BME280;46837;52.446;-1.930;2023-05-25T04:03:09;101486.85;;;13.50;74.83
60642;BME280;46837;52.446;-1.930;2023-05-25T04:04:09;101488.78;;;13.50;74.86
60642;BME280;46837;52.446;-1.930;2023-05-25T04:05:09;101491.78;;;13.49;74.89
60642;BME280;46837;52.446;-1.930;2023-05-25T04:06:09;101493.41;;;13.53;74.78
60642;BME280;46837;52.446;-1.930;2023-05-25T04:07:09;101496.32;;;13.51;74.79
60642;BME280;46837;52.446;-1.930;2023-05-25T04:08:13;101495.96;;;13.49;74.89
60642;BME280;46837;52.446;-1.930;2023-05-25T04:09:09;101497.52;;;13.46;75.02
60642;BME280;46837;52.446;-1.930;2023-05-25T04:10:09;101491.68;;;13.45;75.01
60642;BME280;46837;52.446;-1.930;2023-05-25T04:11:09;101494.34;;;13.47;74.93
60642;BME280;46837;52.446;-1.930;2023-05-25T04:12:09;101493.36;;;13.47;74.92
60642;BME280;46837;52.446;-1.930;2023-05-25T04:13:09;101491.04;;;13.47;74.96
60642;BME280;46837;52.446;-1.930;2023-05-25T04:14:09;101492.74;;;13.46;75.00
60642;BME280;46837;52.446;-1.930;2023-05-25T04:15:10;101496.14;;;13.46;75.05
60642;BME280;46837;52.446;-1.930;2023-05-25T04:16:09;101493.82;;;13.49;74.96
60642;BME280;46837;52.446;-1.930;2023-05-25T04:17:09;101494.04;;;13.54;74.79
60642;BME280;46837;52.446;-1.930;2023-05-25T04:18:09;101498.61;;;13.56;74.69
60642;BME280;46837;52.446;-1.930;2023-05-25T04:19:09;101496.23;;;13.58;74.61
60642;BME280;46837;52.446;-1.930;2023-05-25T04:20:09;101496.34;;;13.58;74.58
60642;BME280;46837;52.446;-1.930;2023-05-25T04:21:09;101496.57;;;13.59;74.58
60642;BME280;46837;52.446;-1.930;2023-05-25T04:22:09;101496.09;;;13.60;74.59
60642;BME280;46837;52.446;-1.930;2023-05-25T04:23:09;101496.89;;;13.63;74.52
60642;BME280;46837;52.446;-1.930;2023-05-25T04:24:09;101494.04;;;13.63;74.54
60642;BME280;46837;52.446;-1.930;2023-05-25T04:25:09;101493.90;;;13.65;74.51
60642;BME280;46837;52.446;-1.930;2023-05-25T04:26:12;101498.34;;;13.68;74.41
60642;BME280;46837;52.446;-1.930;2023-05-25T04:27:09;101496.46;;;13.68;74.42
60642;BME280;46837;52.446;-1.930;2023-05-25T04:28:10;101497.06;;;13.69;74.45
60642;BME280;46837;52.446;-1.930;2023-05-25T04:29:09;101499.50;;;13.70;74.40
60642;BME280;46837;52.446;-1.930;2023-05-25T04:30:09;101496.56;;;13.72;74.45
60642;BME280;46837;52.446;-1.930;2023-05-25T04:31:09;101496.83;;;13.73;74.34
60642;BME280;46837;52.446;-1.930;2023-05-25T04:32:09;101499.07;;;13.75;74.31
60642;BME280;46837;52.446;-1.930;2023-05-25T04:33:09;101496.66;;;13.77;74.22
60642;BME280;46837;52.446;-1.930;2023-05-25T04:34:09;101497.91;;;13.75;74.32
60642;BME280;46837;52.446;-1.930;2023-05-25T04:35:09;101500.11;;;13.75;74.38
60642;BME280;46837;52.446;-1.930;2023-05-25T04:36:09;101500.27;;;13.79;74.13
60642;BME280;46837;52.446;-1.930;2023-05-25T04:37:10;101500.48;;;13.80;74.16
60642;BME280;46837;52.446;-1.930;2023-05-25T04:38:09;101501.70;;;13.80;74.19
60642;BME280;46837;52.446;-1.930;2023-05-25T04:39:09;101502.00;;;13.83;74.06
60642;BME280;46837;52.446;-1.930;2023-05-25T04:40:11;101500.52;;;13.82;74.07
60642;BME280;46837;52.446;-1.930;2023-05-25T04:41:09;101502.13;;;13.79;74.20
60642;BME280;46837;52.446;-1.930;2023-05-25T04:42:09;101502.73;;;13.83;74.15
60642;BME280;46837;52.446;-1.930;2023-05-25T04:43:09;101503.20;;;13.81;74.10
60642;BME280;46837;52.446;-1.930;2023-05-25T04:44:09;101504.11;;;13.80;74.19
60642;BME280;46837;52.446;-1.930;2023-05-25T04:45:09;101506.87;;;13.81;74.19
60642;BME280;46837;52.446;-1.930;2023-05-25T04:46:09;101510.78;;;13.77;74.31
60642;BME280;46837;52.446;-1.930;2023-05-25T04:47:09;101510.83;;;13.77;74.30
60642;BME280;46837;52.446;-1.930;2023-05-25T04:48:09;101508.29;;;13.76;74.35
60642;BME280;46837;52.446;-1.930;2023-05-25T04:49:10;101508.61;;;13.79;74.25
60642;BME280;46837;52.446;-1.930;2023-05-25T04:50:11;101510.73;;;13.77;74.27
60642;BME280;46837;52.446;-1.930;2023-05-25T04:51:09;101507.33;;;13.78;74.30
60642;BME280;46837;52.446;-1.930;2023-05-25T04:52:09;101507.84;;;13.78;74.22
60642;BME280;46837;52.446;-1.930;2023-05-25T04:53:09;101511.93;;;13.76;74.34
60642;BME280;46837;52.446;-1.930;2023-05-25T04:54:09;101511.68;;;13.78;74.27
60642;BME280;46837;52.446;-1.930;2023-05-25T04:55:09;101510.65;;;13.79;74.42
60642;BME280;46837;52.446;-1.930;2023-05-25T04:56:09;101513.06;;;13.80;74.33
60642;BME280;46837;52.446;-1.930;2023-05-25T04:57:09;101513.50;;;13.80;74.28
60642;BME280;46837;52.446;-1.930;2023-05-25T04:58:09;101512.77;;;13.83;74.23
60642;BME280;46837;52.446;-1.930;2023-05-25T04:59:09;101514.13;;;13.87;74.18
60642;BME280;46837;52.446;-1.930;2023-05-25T05:00:09;101513.43;;;13.86;74.20
60642;BME280;46837;52.446;-1.930;2023-05-25T05:01:09;101514.22;;;13.89;74.15
60642;BME280;46837;52.446;-1.930;2023-05-25T05:02:09;101512.03;;;13.89;74.29
60642;BME280;46837;52.446;-1.930;2023-05-25T05:03:09;101513.43;;;13.88;74.27
60642;BME280;46837;52.446;-1.930;2023-05-25T05:04:09;101514.14;;;13.88;74.26
60642;BME280;46837;52.446;-1.930;2023-05-25T05:05:09;101517.32;;;13.86;74.25
60642;BME280;46837;52.446;-1.930;2023-05-25T05:06:09;101519.04;;;13.88;74.20
60642;BME280;46837;52.446;-1.930;2023-05-25T05:07:09;101518.09;;;13.91;74.12
60642;BME280;46837;52.446;-1.930;2023-05-25T05:08:09;101518.43;;;13.88;74.16
60642;BME280;46837;52.446;-1.930;2023-05-25T05:09:09;101520.59;;;13.89;74.18
60642;BME280;46837;52.446;-1.930;2023-05-25T05:10:09;101522.40;;;13.89;74.20
60642;BME280;46837;52.446;-1.930;2023-05-25T05:11:09;101524.86;;;13.92;74.07
60642;BME280;46837;52.446;-1.930;2023-05-25T05:12:09;101524.70;;;13.94;74.03
60642;BME280;46837;52.446;-1.930;2023-05-25T05:13:09;101528.18;;;13.95;74.05
60642;BME280;46837;52.446;-1.930;2023-05-25T05:14:09;101525.12;;;13.96;73.93
60642;BME280;46837;52.446;-1.930;2023-05-25T05:15:09;101528.53;;;13.96;73.99
60642;BME280;46837;52.446;-1.930;2023-05-25T05:16:09;101531.06;;;13.96;74.00
60642;BME280;46837;52.446;-1.930;2023-05-25T05:17:09;101531.04;;;13.95;73.99